Time;durP1;ratioP1;P1;durP2;ratioP2;P2;SDS_P1;SDS_P2;PMS_P1;PMS_P2;Temp;Humidity;BMP_temperature;BMP_pressure;BME280_temperature;BME280_humidity;BME280_pressure;Samples;Min_cycle;Max_cycle;Signal;HPM_P1;HPM_P2
2023/02/12 00:00:01;;;;;;;21.75;7.70;;;;;;;5.78;58.20;103647.72;4953244;28;20784;-78
2023/02/12 00:02:29;;;;;;;16.45;6.50;;;;;;;5.64;58.08;103645.66;4952777;28;20100;-78
2023/02/12 00:04:54;;;;;;;24.58;7.13;;;;;;;5.70;58.17;103650.09;4971147;28;20129;-78
2023/02/12 00:07:19;;;;;;;20.02;7.57;;;;;;;5.45;58.56;103652.06;4976572;28;20062;-78
2023/02/12 00:09:45;;;;;;;23.42;6.78;;;;;;;5.10;59.79;103653.75;4970124;28;20034;-78
2023/02/12 00:12:10;;;;;;;18.13;7.00;;;;;;;5.40;58.69;103653.69;4977673;28;20180;-78
2023/02/12 00:14:36;;;;;;;21.35;6.22;;;;;;;5.42;58.57;103654.59;4958538;28;20077;-78
2023/02/12 00:17:02;;;;;;;15.38;6.22;;;;;;;5.41;58.81;103652.84;4971597;28;20077;-77
2023/02/12 00:23:15;;;;;;;17.17;6.32;;;;;;;5.57;58.49;103659.31;4955140;28;20572;-78
2023/02/12 00:25:41;;;;;;;12.85;5.82;;;;;;;5.41;59.05;103663.22;4955413;28;20382;-79
2023/02/12 00:28:07;;;;;;;13.00;6.18;;;;;;;5.57;58.61;103664.50;4962171;28;20074;-70
2023/02/12 00:30:32;;;;;;;14.85;5.50;;;;;;;5.16;59.14;103668.56;4944705;28;20166;-70
2023/02/12 00:32:58;;;;;;;22.10;6.45;;;;;;;5.46;58.72;103665.94;4982606;28;20335;-70
2023/02/12 00:35:23;;;;;;;10.73;4.10;;;;;;;5.42;59.13;103664.09;4974804;28;20034;-69
2023/02/12 00:37:49;;;;;;;12.82;5.78;;;;;;;5.49;58.52;103666.00;4956311;28;20140;-70
2023/02/12 00:40:15;;;;;;;11.93;4.05;;;;;;;5.45;58.55;103669.34;4972364;28;20034;-70
2023/02/12 00:42:41;;;;;;;13.20;4.35;;;;;;;5.59;58.28;103678.41;4954477;28;20558;-70
2023/02/12 00:45:07;;;;;;;9.75;4.18;;;;;;;5.42;58.82;103674.47;4963823;28;20155;-71
2023/02/12 00:47:32;;;;;;;7.15;3.38;;;;;;;5.56;58.32;103673.09;4959564;28;20049;-70
2023/02/12 00:49:58;;;;;;;11.13;3.83;;;;;;;5.48;58.61;103676.34;4957510;28;20141;-70
2023/02/12 00:52:23;;;;;;;7.40;3.25;;;;;;;5.31;59.32;103675.91;4969979;28;20074;-70
2023/02/12 00:54:49;;;;;;;6.57;3.38;;;;;;;5.48;58.51;103674.66;4951524;28;20069;-83
2023/02/12 00:57:15;;;;;;;7.13;2.45;;;;;;;5.47;58.91;103672.88;4966273;28;20477;-85
2023/02/12 00:59:41;;;;;;;8.88;3.63;;;;;;;5.54;58.51;103672.19;4962431;28;20035;-73
2023/02/12 01:02:07;;;;;;;8.90;3.22;;;;;;;5.50;58.92;103678.13;4944385;28;20494;-74
2023/02/12 01:04:32;;;;;;;9.00;3.55;;;;;;;5.55;58.37;103676.56;4952767;28;20816;-74
2023/02/12 01:06:58;;;;;;;9.30;3.10;;;;;;;5.65;58.10;103675.06;4954612;28;20053;-74
2023/02/12 01:09:24;;;;;;;7.25;2.80;;;;;;;5.66;57.94;103674.25;4954880;28;20026;-75
2023/02/12 01:11:49;;;;;;;9.73;3.42;;;;;;;5.52;58.23;103670.41;4941605;28;20641;-74
2023/02/12 01:14:15;;;;;;;5.13;2.45;;;;;;;5.48;58.37;103672.06;4961843;28;20031;-76
2023/02/12 01:16:40;;;;;;;9.20;2.60;;;;;;;5.64;58.32;103671.59;4955583;28;20052;-75
2023/02/12 01:19:06;;;;;;;5.32;2.53;;;;;;;5.61;57.92;103671.53;4971103;28;20602;-75
2023/02/12 01:21:33;;;;;;;4.57;2.38;;;;;;;5.49;58.36;103670.31;4954014;28;20841;-75
2023/02/12 01:23:59;;;;;;;4.20;1.73;;;;;;;5.63;58.05;103667.22;4962164;28;20070;-76
2023/02/12 01:26:26;;;;;;;5.53;1.40;;;;;;;5.51;58.28;103664.34;4963733;28;20039;-76
2023/02/12 01:28:58;;;;;;;6.28;2.03;;;;;;;5.42;58.17;103669.28;4960337;28;20054;-77
2023/02/12 01:31:26;;;;;;;5.03;2.38;;;;;;;5.31;58.39;103671.59;4977716;28;20507;-76
2023/02/12 01:33:54;;;;;;;5.80;2.25;;;;;;;5.31;58.36;103681.09;4939822;28;20463;-76
2023/02/12 01:36:20;;;;;;;7.32;2.63;;;;;;;5.02;59.18;103663.03;4962493;28;20034;-76
2023/02/12 01:38:50;;;;;;;4.65;2.50;;;;;;;4.94;59.31;103667.09;4944889;28;20062;-74
2023/02/12 01:41:22;;;;;;;3.97;2.10;;;;;;;5.09;58.60;103670.13;4960099;28;20078;-76
2023/02/12 01:44:07;;;;;;;5.63;2.08;;;;;;;5.09;58.72;103664.94;4955779;28;20046;-76
2023/02/12 01:46:33;;;;;;;8.02;2.03;;;;;;;5.18;58.17;103665.19;4958288;28;20039;-77
2023/02/12 01:48:59;;;;;;;5.88;2.60;;;;;;;5.21;58.30;103675.66;4960157;28;20297;-75
2023/02/12 01:51:28;;;;;;;5.57;2.15;;;;;;;4.92;58.73;103659.31;4952701;28;20595;-75
2023/02/12 01:53:55;;;;;;;9.70;2.95;;;;;;;5.11;58.55;103665.00;4943841;28;20382;-72
2023/02/12 01:56:23;;;;;;;8.13;2.75;;;;;;;4.98;59.00;103667.22;4953027;28;20734;-72
2023/02/12 01:58:51;;;;;;;10.80;3.47;;;;;;;5.08;58.92;103670.97;4956723;28;20056;-72
2023/02/12 02:01:28;;;;;;;11.90;2.92;;;;;;;5.14;58.88;103663.34;4951757;28;20040;-72
2023/02/12 02:04:00;;;;;;;12.10;3.75;;;;;;;5.27;58.28;103666.28;4956417;28;20411;-72
2023/02/12 02:06:30;;;;;;;5.78;2.40;;;;;;;5.31;58.28;103670.72;4954233;28;20562;-72
2023/02/12 02:08:56;;;;;;;7.93;3.22;;;;;;;5.27;58.26;103661.09;4938425;28;20086;-72
2023/02/12 02:17:16;;;;;;;9.00;3.30;;;;;;;5.28;58.24;103673.22;4955627;28;20955;-73
2023/02/12 02:20:00;;;;;;;8.88;2.92;;;;;;;5.12;58.54;103675.38;4947444;28;20076;-71
2023/02/12 02:22:32;;;;;;;8.80;3.25;;;;;;;5.14;58.41;103667.66;4956937;28;20274;-71
2023/02/12 02:25:21;;;;;;;22.45;4.30;;;;;;;5.02;58.72;103661.28;4954968;28;20038;-72
2023/02/12 02:28:14;;;;;;;7.00;3.00;;;;;;;4.96;59.45;103665.44;4956975;28;20142;-72
2023/02/12 02:30:47;;;;;;;12.43;3.85;;;;;;;4.99;59.00;103665.53;4967624;28;20042;-77
2023/02/12 02:33:24;;;;;;;11.88;3.42;;;;;;;5.02;59.28;103657.84;4945790;28;20198;-77
2023/02/12 02:36:17;;;;;;;7.28;3.67;;;;;;;5.17;58.63;103660.84;4940064;28;20041;-77
2023/02/12 02:38:50;;;;;;;15.95;3.58;;;;;;;5.05;59.17;103665.69;4968473;28;20059;-76
2023/02/12 02:41:46;;;;;;;13.23;3.58;;;;;;;5.15;59.12;103657.34;4957537;28;21290;-76
2023/02/12 02:44:25;;;;;;;10.43;3.50;;;;;;;5.23;58.67;103662.72;4940304;28;20047;-77
2023/02/12 02:46:53;;;;;;;7.45;4.00;;;;;;;5.41;58.01;103670.09;4956770;28;20042;-77
2023/02/12 02:49:31;;;;;;;10.75;3.90;;;;;;;5.42;58.19;103662.38;4989283;28;20034;-76
2023/02/12 02:52:04;;;;;;;14.63;3.13;;;;;;;5.29;58.47;103673.25;4937791;28;20336;-68
2023/02/12 02:54:37;;;;;;;20.92;3.67;;;;;;;4.97;59.64;103659.44;4962489;28;20033;-69
2023/02/12 02:57:12;;;;;;;26.60;3.63;;;;;;;5.12;59.01;103653.75;4958815;28;20038;-70
2023/02/12 02:59:45;;;;;;;19.65;3.13;;;;;;;4.88;59.64;103649.69;4955633;28;20384;-69
2023/02/12 03:02:18;;;;;;;13.80;3.08;;;;;;;4.75;59.82;103663.94;4957527;28;20054;-69
2023/02/12 03:04:49;;;;;;;26.17;4.15;;;;;;;5.16;58.95;103656.47;4952663;28;20046;-70
2023/02/12 03:07:27;;;;;;;8.40;2.85;;;;;;;5.22;58.96;103658.38;4940383;28;20045;-68
2023/02/12 03:09:57;;;;;;;12.25;4.43;;;;;;;5.35;58.49;103664.78;4971256;28;20138;-70
2023/02/12 03:12:33;;;;;;;9.07;2.95;;;;;;;5.42;58.52;103648.53;4959670;28;20588;-69
2023/02/12 03:15:07;;;;;;;12.35;3.13;;;;;;;5.14;58.79;103650.38;4946038;28;20034;-69
2023/02/12 03:17:39;;;;;;;14.52;3.40;;;;;;;5.08;59.46;103655.41;4954054;28;20065;-70
2023/02/12 03:20:14;;;;;;;14.20;3.83;;;;;;;5.24;59.07;103665.38;4963334;28;20054;-70
2023/02/12 03:22:44;;;;;;;11.80;2.67;;;;;;;5.18;59.03;103651.34;4954367;28;20062;-69
2023/02/12 03:25:17;;;;;;;12.93;3.45;;;;;;;5.37;58.41;103644.91;4955775;28;20042;-69
2023/02/12 03:27:48;;;;;;;15.90;3.75;;;;;;;5.35;58.68;103647.50;4953701;28;20128;-68
2023/02/12 03:30:14;;;;;;;6.68;3.05;;;;;;;5.52;58.24;103642.72;4955421;28;20382;-72
2023/02/12 03:33:10;;;;;;;9.02;3.17;;;;;;;5.54;58.35;103648.84;4953559;28;20092;-71
2023/02/12 03:35:52;;;;;;;7.00;2.95;;;;;;;5.50;58.44;103653.91;4954699;28;20074;-71
2023/02/12 03:38:40;;;;;;;6.60;3.83;;;;;;;5.52;58.52;103654.81;4953762;28;20109;-71
2023/02/12 03:41:19;;;;;;;7.00;2.95;;;;;;;5.49;58.12;103647.84;4955936;28;20073;-72
2023/02/12 03:43:51;;;;;;;17.92;3.50;;;;;;;5.52;57.91;103649.63;4922944;28;20880;-72
2023/02/12 03:46:49;;;;;;;16.80;3.30;;;;;;;5.45;58.21;103646.88;4942316;28;20086;-72
2023/02/12 03:49:35;;;;;;;6.25;2.15;;;;;;;5.48;58.26;103656.50;4961882;28;20104;-72
2023/02/12 03:52:03;;;;;;;9.77;3.13;;;;;;;5.48;58.48;103646.13;4956611;28;20735;-71
2023/02/12 03:54:28;;;;;;;9.05;3.33;;;;;;;5.42;58.25;103653.72;4957110;28;20411;-72
2023/02/12 03:57:02;;;;;;;5.10;2.80;;;;;;;5.53;58.37;103656.59;4954676;28;20042;-72
2023/02/12 03:59:29;;;;;;;5.60;2.38;;;;;;;5.46;58.31;103655.56;4955956;28;20048;-71
2023/02/12 04:01:57;;;;;;;7.05;3.28;;;;;;;5.31;58.48;103660.34;4936170;28;20038;-72
2023/02/12 04:04:23;;;;;;;7.97;3.60;;;;;;;5.16;58.71;103664.25;4953425;28;20129;-72
2023/02/12 04:06:51;;;;;;;7.50;3.65;;;;;;;5.18;58.79;103669.50;4955511;28;20038;-71
2023/02/12 04:09:18;;;;;;;9.30;3.83;;;;;;;4.67;59.71;103673.19;4954249;28;20073;-72
2023/02/12 04:12:01;;;;;;;7.32;3.88;;;;;;;5.02;59.01;103670.78;4957756;28;20049;-72
2023/02/12 04:14:36;;;;;;;7.88;3.35;;;;;;;5.07;59.01;103671.78;4985194;28;20414;-71
2023/02/12 04:17:13;;;;;;;10.07;4.85;;;;;;;5.14;58.61;103673.72;4958012;28;20027;-69
2023/02/12 04:19:56;;;;;;;9.32;3.45;;;;;;;5.16;58.77;103676.34;4956660;28;20042;-68
2023/02/12 04:22:45;;;;;;;21.63;3.25;;;;;;;5.13;58.68;103677.16;4943757;28;20416;-68
2023/02/12 04:25:18;;;;;;;16.05;3.83;;;;;;;5.16;58.50;103682.41;4956508;28;20053;-69
2023/02/12 04:27:54;;;;;;;12.07;4.35;;;;;;;5.01;59.16;103679.38;4966555;28;20049;-69
2023/02/12 04:30:28;;;;;;;34.03;4.40;;;;;;;4.90;59.35;103689.47;4959558;28;20495;-69
2023/02/12 04:33:03;;;;;;;11.75;3.22;;;;;;;4.99;59.50;103683.69;4953761;28;20057;-68
2023/02/12 04:36:00;;;;;;;13.45;4.07;;;;;;;5.02;58.94;103678.56;4954648;28;20037;-69
2023/02/12 04:38:34;;;;;;;11.07;2.78;;;;;;;5.03;59.03;103690.69;4941431;28;20097;-69
2023/02/12 04:41:01;;;;;;;16.80;3.05;;;;;;;4.42;60.44;103689.72;4939139;28;20523;-70
2023/02/12 04:43:35;;;;;;;28.33;3.15;;;;;;;4.23;61.04;103688.28;4954648;28;20057;-70
2023/02/12 04:46:03;;;;;;;16.83;3.42;;;;;;;4.71;59.88;103681.97;4970861;28;20035;-70
2023/02/12 04:48:28;;;;;;;7.57;2.28;;;;;;;4.84;59.33;103679.75;4953271;28;20069;-68
2023/02/12 04:50:53;;;;;;;8.77;2.30;;;;;;;4.88;59.24;103680.78;4955534;28;20116;-69
2023/02/12 04:53:19;;;;;;;11.68;3.03;;;;;;;4.30;60.49;103689.34;4953635;28;20791;-74
2023/02/12 04:55:46;;;;;;;6.03;2.08;;;;;;;4.54;60.01;103690.13;4945882;28;20494;-76
2023/02/12 04:58:11;;;;;;;7.13;2.03;;;;;;;4.86;59.16;103691.91;4942618;28;20046;-74
2023/02/12 05:00:37;;;;;;;12.20;3.47;;;;;;;4.95;58.53;103687.00;4953830;28;20034;-69
2023/02/12 05:03:02;;;;;;;5.68;2.45;;;;;;;4.77;58.72;103693.38;4952912;28;20042;-69
2023/02/12 05:05:28;;;;;;;8.52;1.77;;;;;;;4.53;59.25;103703.00;4953448;28;20633;-69
2023/02/12 05:07:56;;;;;;;8.98;1.83;;;;;;;4.04;60.94;103698.88;4950180;28;20047;-69
2023/02/12 05:10:21;;;;;;;7.25;2.33;;;;;;;4.45;59.84;103694.13;4934250;28;20090;-67
2023/02/12 05:12:47;;;;;;;6.97;2.17;;;;;;;4.32;60.02;103698.94;4933429;28;20039;-69
2023/02/12 05:15:12;;;;;;;5.55;1.52;;;;;;;4.42;59.71;103706.13;4933849;28;20507;-70
2023/02/12 05:17:38;;;;;;;4.15;1.80;;;;;;;4.65;58.92;103698.19;4933216;28;20043;-70
2023/02/12 05:20:04;;;;;;;6.43;1.15;;;;;;;4.78;58.69;103708.09;4937244;28;20102;-70
2023/02/12 05:22:30;;;;;;;7.00;1.45;;;;;;;4.52;59.19;103706.41;4931770;28;20094;-70
2023/02/12 05:24:55;;;;;;;3.42;1.52;;;;;;;4.67;58.61;103700.84;4940280;28;20165;-70
2023/02/12 05:27:21;;;;;;;3.47;1.08;;;;;;;4.70;58.50;103691.44;4935864;28;20475;-72
2023/02/12 05:29:46;;;;;;;2.28;1.23;;;;;;;4.54;58.60;103691.81;4925250;28;20669;-72
2023/02/12 05:32:12;;;;;;;3.45;1.00;;;;;;;4.36;58.77;103693.03;4941776;28;20121;-69
2023/02/12 05:34:37;;;;;;;7.18;1.27;;;;;;;4.23;59.58;103703.81;4933064;28;20114;-68
2023/02/12 05:37:03;;;;;;;5.05;1.40;;;;;;;4.25;59.17;103702.13;4938368;28;20109;-69
2023/02/12 05:39:28;;;;;;;3.10;0.65;;;;;;;4.29;58.96;103701.41;4953226;28;20033;-68
2023/02/12 05:41:54;;;;;;;4.35;0.73;;;;;;;3.82;60.25;103703.31;4961783;28;20034;-81
2023/02/12 05:44:19;;;;;;;9.23;0.80;;;;;;;3.63;60.11;103700.94;4971776;28;20058;-70
2023/02/12 05:46:45;;;;;;;2.97;0.80;;;;;;;3.79;60.16;103703.22;4958760;28;20034;-82
2023/02/12 05:49:10;;;;;;;6.95;0.47;;;;;;;3.17;61.69;103713.09;4965684;28;20039;-80
2023/02/12 05:51:38;;;;;;;2.83;0.77;;;;;;;3.69;60.28;103714.97;4963687;28;20039;-81
2023/02/12 05:54:05;;;;;;;3.35;0.43;;;;;;;3.87;59.79;103704.34;4979043;28;20038;-80
2023/02/12 05:56:41;;;;;;;2.00;0.35;;;;;;;3.94;59.52;103710.59;4963466;28;20058;-80
2023/02/12 05:59:13;;;;;;;2.70;0.82;;;;;;;3.93;59.37;103709.72;4968678;28;20042;-77
2023/02/12 06:01:41;;;;;;;2.17;0.77;;;;;;;4.23;58.82;103716.75;4963729;28;20039;-78
2023/02/12 06:04:11;;;;;;;2.35;0.70;;;;;;;4.27;58.32;103716.00;4966415;28;20383;-77
2023/02/12 06:06:40;;;;;;;1.83;0.50;;;;;;;4.40;58.56;103725.06;4967974;28;20070;-68
2023/02/12 06:09:07;;;;;;;1.60;0.60;;;;;;;4.47;58.15;103728.72;4965192;28;20058;-70
2023/02/12 06:11:33;;;;;;;1.77;0.40;;;;;;;4.47;58.17;103728.72;4954508;28;20544;-71
2023/02/12 06:14:01;;;;;;;2.35;0.50;;;;;;;4.24;58.60;103730.59;4958031;28;20659;-70
2023/02/12 06:16:27;;;;;;;0.77;0.38;;;;;;;4.37;57.88;103736.19;4946660;28;20073;-70
2023/02/12 06:18:54;;;;;;;0.95;0.20;;;;;;;4.09;58.58;103738.72;4954195;28;20168;-70
2023/02/12 06:21:22;;;;;;;0.93;0.35;;;;;;;4.17;58.21;103740.72;4954789;28;20039;-70
2023/02/12 06:23:48;;;;;;;4.20;0.50;;;;;;;4.09;58.39;103742.19;4955690;28;20133;-68
2023/02/12 06:26:15;;;;;;;1.17;0.45;;;;;;;4.19;58.59;103741.66;4958701;28;20042;-70
2023/02/12 06:28:40;;;;;;;4.13;0.75;;;;;;;4.36;58.23;103747.41;4954232;28;20396;-70
2023/02/12 06:31:17;;;;;;;1.08;0.30;;;;;;;4.21;58.67;103747.78;4971490;28;20045;-70
2023/02/12 06:33:43;;;;;;;2.00;0.70;;;;;;;4.16;58.51;103758.78;4955192;28;20420;-70
2023/02/12 06:36:09;;;;;;;1.60;0.40;;;;;;;4.23;58.52;103750.44;4963349;28;20038;-70
2023/02/12 06:38:34;;;;;;;8.10;0.40;;;;;;;4.17;58.57;103760.56;4970626;28;21147;-82
2023/02/12 06:41:01;;;;;;;1.48;0.68;;;;;;;4.15;58.65;103759.63;4962180;28;20352;-83
2023/02/12 06:43:26;;;;;;;3.33;0.50;;;;;;;4.22;58.00;103759.88;4979187;28;20113;-84
2023/02/12 06:45:52;;;;;;;1.30;0.40;;;;;;;4.18;58.53;103762.31;4962166;28;21817;-84
2023/02/12 06:48:17;;;;;;;1.17;0.40;;;;;;;4.27;58.39;103770.38;4950709;28;20129;-73
2023/02/12 06:50:43;;;;;;;1.70;0.30;;;;;;;4.29;58.35;103768.72;4970280;28;20415;-70
2023/02/12 06:53:09;;;;;;;1.95;0.57;;;;;;;4.43;58.05;103769.16;4962870;28;20462;-70
2023/02/12 06:55:34;;;;;;;3.72;0.50;;;;;;;4.40;58.29;103769.06;4954184;28;20060;-72
2023/02/12 06:58:00;;;;;;;1.30;0.30;;;;;;;4.51;57.92;103769.44;4957572;28;20100;-68
2023/02/12 07:00:26;;;;;;;2.53;0.60;;;;;;;4.56;57.74;103775.63;4952987;28;20141;-68
2023/02/12 07:02:53;;;;;;;1.15;0.25;;;;;;;4.59;58.17;103776.63;4951227;28;20576;-69
2023/02/12 07:05:20;;;;;;;3.63;0.40;;;;;;;4.47;58.04;103785.69;4955252;28;20057;-68
2023/02/12 07:07:46;;;;;;;1.25;0.50;;;;;;;4.34;58.85;103789.59;4952131;28;20047;-69
2023/02/12 07:10:11;;;;;;;1.80;0.30;;;;;;;4.21;58.79;103793.50;4956970;28;20031;-70
2023/02/12 07:12:37;;;;;;;1.23;0.40;;;;;;;4.40;58.74;103790.66;4952235;28;20915;-70
2023/02/12 07:15:03;;;;;;;1.10;0.40;;;;;;;4.51;58.29;103790.16;4958802;28;20117;-72
2023/02/12 07:17:29;;;;;;;3.70;0.40;;;;;;;4.43;58.30;103795.97;4953364;28;20046;-68
2023/02/12 07:19:55;;;;;;;4.63;0.38;;;;;;;4.38;58.43;103799.22;4943646;28;20113;-71
2023/02/12 07:22:21;;;;;;;1.95;0.50;;;;;;;4.37;58.13;103795.75;4960363;28;20084;-70
2023/02/12 07:24:47;;;;;;;1.20;0.70;;;;;;;4.34;58.18;103798.25;4959853;28;20030;-71
2023/02/12 07:27:13;;;;;;;1.88;0.50;;;;;;;4.43;58.27;103801.16;4963130;28;20046;-69
2023/02/12 07:29:39;;;;;;;1.85;0.82;;;;;;;4.71;57.94;103796.84;4952564;28;20039;-72
2023/02/12 07:32:05;;;;;;;2.67;0.50;;;;;;;4.62;57.85;103806.91;4956649;28;20034;-75
2023/02/12 07:34:31;;;;;;;2.40;0.50;;;;;;;4.51;58.44;103801.38;4948392;28;20027;-76
2023/02/12 07:36:56;;;;;;;1.85;0.43;;;;;;;4.80;58.00;103799.72;4954691;28;20044;-70
2023/02/12 07:39:22;;;;;;;1.42;0.50;;;;;;;4.48;58.74;103803.00;4957394;28;20042;-69
2023/02/12 07:41:48;;;;;;;11.88;1.15;;;;;;;4.20;59.10;103804.66;4953374;28;20872;-69
2023/02/12 07:44:14;;;;;;;13.73;1.40;;;;;;;4.40;58.49;103800.16;4962981;28;20042;-72
2023/02/12 07:46:45;;;;;;;2.30;0.93;;;;;;;4.73;57.88;103809.84;4956871;28;20042;-72
2023/02/12 07:49:14;;;;;;;4.47;0.90;;;;;;;4.66;58.13;103816.53;4955306;28;20566;-70
2023/02/12 07:51:40;;;;;;;2.38;0.70;;;;;;;4.38;58.73;103813.03;4955397;28;20035;-70
2023/02/12 07:54:06;;;;;;;4.20;0.40;;;;;;;4.52;58.21;103815.22;4953519;28;20129;-70
2023/02/12 07:56:36;;;;;;;1.15;0.28;;;;;;;4.61;58.08;103816.41;4953626;28;20031;-71
2023/02/12 07:59:04;;;;;;;3.13;0.30;;;;;;;4.48;58.66;103823.72;4961863;28;20035;-71
2023/02/12 08:01:39;;;;;;;3.35;0.82;;;;;;;4.51;58.11;103814.34;4951572;28;20038;-69
2023/02/12 08:04:12;;;;;;;5.22;0.70;;;;;;;3.98;59.14;103806.56;4953643;28;20046;-69
2023/02/12 08:06:40;;;;;;;3.15;1.67;;;;;;;4.34;58.72;103812.88;4951633;28;20667;-75
2023/02/12 08:09:08;;;;;;;6.15;2.00;;;;;;;4.64;58.30;103815.63;4960107;28;20049;-72
2023/02/12 08:11:36;;;;;;;5.45;2.47;;;;;;;4.05;59.62;103822.25;4950067;28;20102;-71
2023/02/12 08:14:03;;;;;;;2.70;1.02;;;;;;;3.92;59.48;103826.16;4954651;28;20539;-69
2023/02/12 08:16:30;;;;;;;3.33;1.33;;;;;;;4.20;58.97;103827.97;4962958;28;20066;-73
2023/02/12 08:18:57;;;;;;;4.63;1.02;;;;;;;4.29;58.06;103830.88;4968844;28;21078;-69
2023/02/12 08:21:26;;;;;;;1.38;0.73;;;;;;;4.17;58.71;103830.47;4953663;28;20074;-71
2023/02/12 08:23:57;;;;;;;6.05;0.52;;;;;;;4.18;58.54;103827.91;4959668;28;20047;-69
2023/02/12 08:26:33;;;;;;;2.70;0.82;;;;;;;3.84;59.35;103833.63;4954871;28;20030;-68
2023/02/12 08:29:05;;;;;;;5.10;0.73;;;;;;;4.15;58.91;103838.16;4946872;28;20443;-68
2023/02/12 08:31:33;;;;;;;2.45;0.98;;;;;;;4.37;58.40;103839.78;4952357;28;20037;-67
2023/02/12 08:33:59;;;;;;;2.22;0.40;;;;;;;4.27;58.36;103837.69;4955590;28;20042;-68
2023/02/12 08:36:33;;;;;;;4.68;0.40;;;;;;;4.43;58.13;103837.41;4951249;28;20198;-69
2023/02/12 08:38:59;;;;;;;2.65;0.30;;;;;;;4.80;57.48;103841.16;4942230;28;20071;-69
2023/02/12 08:41:28;;;;;;;2.33;0.60;;;;;;;4.48;58.10;103842.75;4935184;28;20027;-68
2023/02/12 08:43:58;;;;;;;2.00;0.68;;;;;;;5.02;57.04;103845.34;4948042;28;20119;-68
2023/02/12 08:46:27;;;;;;;2.03;0.47;;;;;;;5.29;56.48;103851.34;4954490;28;20049;-67
2023/02/12 08:48:55;;;;;;;1.85;0.52;;;;;;;5.12;56.01;103843.91;4951911;28;22053;-67
2023/02/12 08:51:24;;;;;;;1.83;0.30;;;;;;;5.04;56.67;103855.78;4959114;28;20428;-69
2023/02/12 08:53:58;;;;;;;1.80;0.20;;;;;;;5.19;56.63;103855.34;4956002;28;20905;-69
2023/02/12 08:56:25;;;;;;;0.77;0.20;;;;;;;5.15;55.91;103859.59;4952854;28;20049;-69
2023/02/12 08:58:51;;;;;;;0.90;0.30;;;;;;;5.05;56.02;103860.13;4951881;28;20054;-68
2023/02/12 09:01:23;;;;;;;2.55;0.30;;;;;;;5.12;56.31;103859.47;4954026;28;20076;-69
2023/02/12 09:03:49;;;;;;;1.77;0.30;;;;;;;4.56;56.26;103864.56;4950689;28;20085;-68
2023/02/12 09:06:16;;;;;;;1.33;0.38;;;;;;;4.84;56.69;103865.47;4954137;28;20053;-69
2023/02/12 09:08:43;;;;;;;6.40;0.50;;;;;;;5.16;56.53;103866.50;4952015;28;20043;-68
2023/02/12 09:11:15;;;;;;;2.28;0.20;;;;;;;5.19;56.52;103869.22;4952698;28;20896;-68
2023/02/12 09:13:42;;;;;;;3.25;0.50;;;;;;;5.22;56.34;103866.72;4940149;28;20047;-68
2023/02/12 09:16:08;;;;;;;3.50;0.40;;;;;;;5.51;56.13;103866.69;4933286;28;20506;-69
2023/02/12 09:18:34;;;;;;;2.72;0.50;;;;;;;5.10;55.65;103868.03;4944424;28;20049;-68
2023/02/12 09:21:07;;;;;;;1.05;0.35;;;;;;;4.89;56.70;103863.06;4954029;28;20109;-68
2023/02/12 09:23:33;;;;;;;1.77;0.30;;;;;;;5.07;56.54;103868.81;4955050;28;20515;-67
2023/02/12 09:25:58;;;;;;;3.78;0.40;;;;;;;4.64;57.14;103867.44;4955976;28;20034;-68
2023/02/12 09:28:24;;;;;;;2.30;0.40;;;;;;;5.28;56.20;103872.91;4956206;28;20066;-67
2023/02/12 09:30:50;;;;;;;2.72;0.50;;;;;;;5.07;56.84;103874.00;4952690;28;20041;-69
2023/02/12 09:33:16;;;;;;;1.17;0.35;;;;;;;5.51;56.13;103871.88;4962893;28;20356;-69
2023/02/12 09:35:42;;;;;;;1.40;0.43;;;;;;;5.52;56.61;103871.03;4954438;28;20035;-67
2023/02/12 09:38:07;;;;;;;2.08;0.30;;;;;;;5.72;55.83;103873.34;4956251;28;20046;-68
2023/02/12 09:40:48;;;;;;;3.45;0.57;;;;;;;5.79;55.05;103872.66;4942969;28;20231;-68
2023/02/12 09:43:28;;;;;;;1.55;0.20;;;;;;;5.90;55.42;103871.25;4955640;28;20511;-68
2023/02/12 09:46:07;;;;;;;4.30;1.13;;;;;;;5.76;55.50;103873.47;4959616;28;20495;-67
2023/02/12 09:48:44;;;;;;;1.77;0.68;;;;;;;6.06;55.21;103867.34;4954510;28;20496;-68
2023/02/12 09:51:10;;;;;;;1.58;0.35;;;;;;;5.08;56.37;103874.88;4956866;28;20176;-68
2023/02/12 09:53:41;;;;;;;2.72;0.63;;;;;;;5.84;55.23;103871.97;4952672;28;20042;-69
2023/02/12 09:56:17;;;;;;;1.50;0.70;;;;;;;6.38;54.30;103870.84;4957216;28;20081;-67
2023/02/12 09:58:53;;;;;;;4.93;0.70;;;;;;;6.46;53.60;103871.91;4951573;28;20050;-68
2023/02/12 10:01:21;;;;;;;2.70;0.93;;;;;;;6.31;53.28;103875.81;4960341;28;20042;-69
2023/02/12 10:03:50;;;;;;;3.13;0.65;;;;;;;6.40;53.74;103879.53;4952259;28;20579;-69
2023/02/12 10:06:22;;;;;;;2.15;0.40;;;;;;;5.82;55.17;103885.75;4956592;28;20040;-68
2023/02/12 10:09:10;;;;;;;1.17;0.38;;;;;;;6.18;54.46;103874.59;4952488;28;20112;-68
2023/02/12 10:11:40;;;;;;;4.72;0.65;;;;;;;6.01;54.34;103876.72;4953265;28;20273;-68
2023/02/12 10:14:33;;;;;;;2.05;0.60;;;;;;;6.24;54.49;103877.38;4956455;28;20053;-69
2023/02/12 10:17:50;;;;;;;3.25;0.65;;;;;;;6.75;53.68;103874.31;4962124;28;20038;-69
2023/02/12 10:20:31;;;;;;;4.63;0.40;;;;;;;6.46;53.78;103884.91;4940076;28;20179;-67
2023/02/12 10:23:10;;;;;;;1.08;0.35;;;;;;;6.32;53.87;103886.25;4953133;28;20756;-68
2023/02/12 10:25:43;;;;;;;2.08;0.65;;;;;;;6.88;53.31;103888.50;4953500;28;20755;-68
2023/02/12 10:28:20;;;;;;;1.30;0.50;;;;;;;6.73;53.19;103891.63;4958719;28;20069;-69
2023/02/12 10:31:35;;;;;;;1.48;0.40;;;;;;;6.75;52.78;103897.72;4961123;28;20078;-69
2023/02/12 10:34:14;;;;;;;2.40;0.88;;;;;;;6.71;53.41;103895.91;4948060;28;20245;-67
2023/02/12 10:37:19;;;;;;;4.03;1.33;;;;;;;7.17;52.26;103893.50;4954649;28;20085;-68
2023/02/12 10:39:53;;;;;;;2.17;0.50;;;;;;;7.16;51.79;103890.03;4953928;28;20050;-68
2023/02/12 10:42:33;;;;;;;2.20;0.43;;;;;;;7.29;52.50;103886.84;4968998;28;20108;-67
2023/02/12 10:44:59;;;;;;;1.23;0.32;;;;;;;7.26;52.59;103886.78;4962703;28;20031;-68
2023/02/12 10:47:25;;;;;;;1.75;0.70;;;;;;;7.58;52.38;103883.13;4966644;28;20506;-67
2023/02/12 10:49:59;;;;;;;1.10;0.25;;;;;;;7.36;52.33;103887.00;4965405;28;20479;-68
2023/02/12 10:52:45;;;;;;;1.80;0.63;;;;;;;7.70;50.84;103893.81;4951505;28;20207;-67
2023/02/12 10:55:27;;;;;;;1.35;0.40;;;;;;;7.81;50.37;103883.63;4952131;28;20550;-67
2023/02/12 10:57:53;;;;;;;2.13;0.70;;;;;;;7.22;52.06;103890.19;4949039;28;21924;-67
2023/02/12 11:00:24;;;;;;;1.27;0.52;;;;;;;7.64;51.83;103880.66;4952609;28;20090;-67
2023/02/12 11:03:10;;;;;;;1.23;0.68;;;;;;;7.57;52.11;103891.81;4942639;28;20129;-67
2023/02/12 11:05:37;;;;;;;0.95;0.50;;;;;;;7.72;50.87;103887.78;4951282;28;20038;-69
2023/02/12 11:08:03;;;;;;;1.70;0.45;;;;;;;7.91;50.84;103893.34;4951846;28;20204;-68
2023/02/12 11:10:30;;;;;;;1.58;0.60;;;;;;;7.16;52.55;103884.84;4967595;28;20134;-67
2023/02/12 11:13:00;;;;;;;3.05;0.50;;;;;;;7.04;52.84;103888.03;4965755;28;20100;-68
2023/02/12 11:15:33;;;;;;;6.65;2.33;;;;;;;7.14;52.61;103888.25;4953757;28;20270;-67
2023/02/12 11:18:00;;;;;;;1.15;0.45;;;;;;;6.87;53.59;103891.97;4968147;28;20922;-67
2023/02/12 11:20:38;;;;;;;1.52;0.52;;;;;;;6.95;53.08;103889.53;4950270;28;20039;-67
2023/02/12 11:23:06;;;;;;;1.60;0.70;;;;;;;6.60;54.37;103893.03;4952331;28;20049;-68
2023/02/12 11:25:33;;;;;;;1.77;0.73;;;;;;;6.50;53.94;103884.13;4952126;28;20116;-70
2023/02/12 11:28:16;;;;;;;1.65;0.95;;;;;;;6.93;53.52;103878.22;4951319;28;20742;-67
2023/02/12 11:30:48;;;;;;;;;;;;;;;7.07;52.81;103879.44;4951406;28;20250;-67
2023/02/12 11:33:20;;;;;;;1.10;0.30;;;;;;;7.49;52.39;103881.22;4954155;28;19928;-68
2023/02/12 11:35:50;;;;;;;;;;;;;;;7.25;51.72;103879.81;4950407;28;20451;-68
2023/02/12 11:38:26;;;;;;;2.50;1.00;;;;;;;7.57;51.26;103877.06;4950594;28;20637;-69
2023/02/12 11:40:56;;;;;;;3.00;0.98;;;;;;;7.66;51.15;103878.97;4979032;28;20179;-68
2023/02/12 11:43:23;;;;;;;2.85;0.70;;;;;;;7.74;51.58;103875.69;4938902;28;20043;-68
2023/02/12 11:45:52;;;;;;;2.47;0.98;;;;;;;7.47;51.49;103880.31;4919080;28;20843;-68
2023/02/12 11:48:34;;;;;;;4.57;1.15;;;;;;;7.38;52.15;103880.97;4942799;28;20042;-68
2023/02/12 11:51:04;;;;;;;2.42;0.68;;;;;;;7.18;53.05;103877.94;4950728;28;20030;-68
2023/02/12 11:53:33;;;;;;;2.67;1.20;;;;;;;7.21;52.23;103872.78;4948786;28;20046;-69
2023/02/12 11:56:04;;;;;;;2.08;0.88;;;;;;;7.41;52.41;103880.16;4956485;28;20069;-69